createdAt,value
2022-11-22T00:01:36.485Z,6.23
2022-11-22T00:06:38.431Z,6.34
2022-11-22T00:11:40.483Z,6.31
2022-11-22T00:16:42.551Z,6.35
2022-11-22T00:21:44.443Z,6.26
2022-11-22T00:26:46.311Z,6.20
2022-11-22T00:31:48.259Z,6.28
2022-11-22T00:36:50.189Z,6.20
2022-11-22T00:41:52.336Z,6.30
2022-11-22T00:46:54.290Z,6.27
2022-11-22T00:51:56.351Z,6.06
2022-11-22T00:56:58.304Z,6.30
2022-11-22T01:02:00.149Z,6.07
2022-11-22T01:07:02.801Z,6.20
2022-11-22T01:12:06.464Z,6.04
2022-11-22T01:17:08.421Z,6.12
2022-11-22T01:22:10.501Z,6.07
2022-11-22T01:27:12.415Z,5.86
2022-11-22T01:32:14.277Z,5.85
2022-11-22T01:37:16.167Z,5.89
2022-11-22T01:42:18.009Z,5.72
2022-11-22T01:47:25.440Z,5.86
2022-11-22T01:52:31.981Z,5.78
2022-11-22T01:57:36.703Z,5.82
2022-11-22T02:02:38.956Z,5.93
2022-11-22T02:07:44.581Z,5.89
2022-11-22T02:12:46.984Z,5.87
2022-11-22T02:17:48.883Z,5.87
2022-11-22T02:23:03.770Z,5.84
2022-11-22T02:28:05.924Z,5.98
2022-11-22T02:33:08.252Z,6.02
2022-11-22T02:38:22.528Z,6.09
2022-11-22T02:43:29.584Z,6.20
2022-11-22T02:48:31.500Z,6.30
2022-11-22T02:53:33.756Z,6.24
2022-11-22T02:58:35.788Z,6.39
2022-11-22T03:03:37.961Z,6.54
2022-11-22T03:08:39.908Z,6.43
2022-11-22T03:13:42.119Z,6.37
2022-11-22T03:18:44.556Z,6.49
2022-11-22T03:23:46.754Z,6.25
2022-11-22T03:28:48.757Z,6.21
2022-11-22T03:33:51.240Z,6.31
2022-11-22T03:38:53.289Z,6.43
2022-11-22T03:43:55.344Z,6.43
2022-11-22T03:48:57.301Z,6.49
2022-11-22T03:53:59.717Z,6.35
2022-11-22T03:59:03.555Z,6.46
2022-11-22T04:04:05.563Z,6.45
2022-11-22T04:09:13.907Z,6.15
2022-11-22T04:14:40.787Z,6.16
2022-11-22T04:20:02.588Z,6.20
2022-11-22T04:25:14.182Z,5.98
2022-11-22T04:30:20.496Z,6.17
2022-11-22T04:35:23.021Z,6.26
2022-11-22T04:40:24.907Z,6.24
2022-11-22T04:45:26.889Z,6.24
2022-11-22T04:50:48.556Z,6.28
2022-11-22T04:55:50.998Z,6.25
2022-11-22T05:00:53.077Z,6.01
2022-11-22T05:05:55.044Z,5.98
2022-11-22T05:10:57.557Z,6.10
2022-11-22T05:16:00.690Z,5.98
2022-11-22T05:21:13.560Z,5.89
2022-11-22T05:26:15.471Z,6.01
2022-11-22T05:31:23.337Z,6.10
2022-11-22T05:36:25.782Z,6.11
2022-11-22T05:41:27.953Z,6.21
2022-11-22T05:46:30.599Z,6.26
2022-11-22T05:51:34.993Z,6.28
2022-11-22T05:56:37.413Z,6.46
2022-11-22T06:01:39.342Z,6.41
2022-11-22T06:06:41.288Z,6.56
2022-11-22T06:11:43.096Z,6.38
2022-11-22T06:16:45.125Z,6.30
2022-11-22T06:21:47.156Z,6.50
2022-11-22T06:26:49.124Z,6.56
2022-11-22T06:31:50.955Z,6.55
2022-11-22T06:36:52.832Z,6.80
2022-11-22T06:41:54.832Z,6.84
2022-11-22T06:46:56.778Z,6.50
2022-11-22T06:51:58.612Z,6.55
2022-11-22T06:57:00.726Z,6.56
2022-11-22T07:02:06.433Z,6.23
2022-11-22T07:07:08.931Z,6.24
2022-11-22T07:12:10.843Z,6.15
2022-11-22T07:17:12.891Z,6.29
2022-11-22T07:22:14.784Z,6.44
2022-11-22T07:27:16.779Z,6.48
2022-11-22T07:32:18.693Z,6.57
2022-11-22T07:37:20.828Z,6.60
2022-11-22T07:42:26.140Z,6.39
2022-11-22T07:47:28.928Z,6.28
2022-11-22T07:52:30.819Z,6.30
2022-11-22T07:57:33.389Z,5.85
2022-11-22T08:02:37.529Z,6.19
2022-11-22T08:07:39.789Z,6.01
2022-11-22T08:12:42.494Z,6.05
2022-11-22T08:17:44.625Z,6.53
2022-11-22T08:22:46.510Z,6.66
2022-11-22T08:27:48.439Z,6.60
2022-11-22T08:32:51.603Z,6.81
2022-11-22T08:37:57.542Z,6.99
2022-11-22T08:42:59.758Z,6.57
2022-11-22T08:48:01.865Z,6.46
2022-11-22T08:53:04.034Z,6.94
2022-11-22T08:58:06.111Z,6.93
2022-11-22T09:03:07.973Z,7.01
2022-11-22T09:08:25.226Z,7.35
2022-11-22T09:13:28.113Z,7.15
2022-11-22T09:18:30.161Z,7.89
2022-11-22T09:23:32.804Z,7.39
2022-11-22T09:28:35.828Z,7.64
2022-11-22T09:33:39.444Z,7.78
2022-11-22T09:38:41.959Z,7.91
2022-11-22T09:43:57.812Z,8.14
2022-11-22T09:49:02.977Z,8.30
2022-11-22T09:54:07.134Z,8.11
2022-11-22T09:59:35.510Z,8.58
2022-11-22T10:04:40.351Z,8.50
2022-11-22T10:10:06.457Z,8.38
2022-11-22T10:15:42.914Z,8.31
2022-11-22T10:20:48.823Z,8.60
2022-11-22T10:26:12.612Z,8.59
2022-11-22T10:31:23.654Z,8.81
2022-11-22T10:36:44.197Z,8.57
2022-11-22T10:42:04.646Z,8.91
2022-11-22T10:47:18.772Z,8.96
2022-11-22T10:52:27.011Z,9.31
2022-11-22T10:57:38.207Z,9.59
2022-11-22T11:03:15.812Z,9.22
2022-11-22T11:14:37.702Z,9.45
2022-11-22T11:19:44.294Z,9.36
2022-11-22T11:24:46.231Z,9.22
2022-11-22T11:29:54.906Z,9.08
2022-11-22T11:35:07.932Z,8.81
2022-11-22T11:40:31.377Z,8.47
2022-11-22T11:45:33.290Z,8.56
2022-11-22T11:50:35.267Z,8.35
2022-11-22T11:55:37.529Z,8.67
2022-11-22T12:00:40.416Z,8.60
2022-11-22T12:05:42.771Z,7.99
2022-11-22T12:10:56.285Z,7.99
2022-11-22T12:16:14.119Z,8.22
2022-11-22T12:22:09.407Z,7.75
2022-11-22T12:27:12.752Z,8.04
2022-11-22T12:32:18.150Z,7.96
2022-11-22T12:37:31.473Z,8.13
2022-11-22T12:42:44.361Z,8.11
2022-11-22T12:47:47.608Z,7.84
2022-11-22T12:52:59.163Z,8.00
2022-11-22T12:58:21.833Z,8.09
2022-11-22T13:03:32.385Z,7.82
2022-11-22T13:08:37.464Z,7.71
2022-11-22T13:13:43.931Z,7.69
2022-11-22T13:18:51.688Z,7.25
2022-11-22T13:24:09.632Z,7.47
2022-11-22T13:29:41.732Z,7.65
2022-11-22T13:35:18.055Z,7.19
2022-11-22T13:40:31.305Z,7.29
2022-11-22T13:45:49.755Z,7.00
2022-11-22T13:50:51.615Z,7.19
2022-11-22T13:55:53.745Z,7.13
2022-11-22T14:00:57.300Z,7.38
2022-11-22T14:05:59.622Z,7.37
2022-11-22T14:11:27.535Z,7.43
2022-11-22T14:16:43.191Z,6.93
2022-11-22T14:22:03.355Z,7.13
2022-11-22T14:27:20.430Z,7.11
2022-11-22T14:32:26.526Z,6.79
2022-11-22T14:37:31.888Z,7.01
2022-11-22T14:42:57.158Z,6.52
2022-11-22T14:48:13.316Z,6.76
2022-11-22T14:53:21.348Z,6.97
2022-11-22T14:58:28.489Z,6.74
2022-11-22T15:09:16.118Z,6.60
2022-11-22T15:09:53.322Z,6.85
2022-11-22T15:58:56.966Z,6.64
2022-11-22T16:03:59.488Z,6.38
2022-11-22T16:09:06.249Z,6.44
2022-11-22T16:14:36.388Z,6.46
2022-11-22T16:19:38.455Z,6.29
2022-11-22T16:24:40.387Z,6.27
2022-11-22T16:29:57.499Z,6.20
2022-11-22T16:35:27.643Z,5.79
2022-11-22T16:40:22.947Z,5.90
2022-11-22T16:45:25.025Z,5.72
2022-11-22T16:50:27.120Z,5.91
2022-11-22T16:55:29.163Z,5.79
2022-11-22T17:00:32.469Z,6.28
2022-11-22T17:05:34.377Z,6.08
2022-11-22T17:10:45.459Z,6.40
2022-11-22T17:15:48.207Z,6.10
2022-11-22T17:20:50.410Z,6.33
2022-11-22T17:25:52.347Z,5.83
2022-11-22T17:30:58.573Z,5.94
2022-11-22T17:36:00.472Z,5.91
2022-11-22T17:41:02.432Z,5.72
2022-11-22T17:46:04.399Z,5.96
2022-11-22T17:51:11.610Z,5.81
2022-11-22T17:56:13.844Z,5.94
2022-11-22T18:01:21.139Z,6.20
2022-11-22T18:06:23.298Z,5.72
2022-11-22T18:11:25.176Z,5.86
2022-11-22T18:16:28.900Z,5.97
2022-11-22T18:21:32.556Z,6.04
2022-11-22T18:26:40.006Z,5.91
2022-11-22T18:31:51.742Z,6.10
2022-11-22T18:37:00.431Z,6.43
2022-11-22T18:42:16.512Z,6.54
2022-11-22T18:47:18.600Z,6.45
2022-11-22T18:52:22.991Z,6.33
2022-11-22T18:57:25.116Z,6.23
2022-11-22T19:02:27.746Z,6.38
2022-11-22T19:07:29.802Z,6.33
2022-11-22T19:12:32.370Z,6.10
2022-11-22T19:17:34.408Z,6.26
2022-11-22T19:22:36.557Z,6.59
2022-11-22T19:27:38.439Z,6.55
2022-11-22T19:32:40.745Z,6.82
2022-11-22T19:37:43.260Z,6.95
2022-11-22T19:42:45.095Z,7.02
2022-11-22T19:47:53.260Z,6.99
2022-11-22T19:52:55.699Z,6.64
2022-11-22T19:57:57.791Z,6.65
2022-11-22T20:02:59.643Z,6.34
2022-11-22T20:08:01.524Z,6.68
2022-11-22T20:13:07.932Z,6.68
2022-11-22T20:18:12.334Z,6.76
2022-11-22T20:23:14.432Z,6.78
2022-11-22T20:28:16.377Z,6.65
2022-11-22T20:33:18.279Z,6.60
2022-11-22T20:38:21.292Z,6.81
2022-11-22T20:43:23.487Z,6.59
2022-11-22T20:48:25.592Z,6.46
2022-11-22T20:53:29.040Z,6.21
2022-11-22T20:58:31.931Z,6.43
2022-11-22T21:03:34.696Z,6.23
2022-11-22T21:08:36.711Z,6.08
2022-11-22T21:13:38.694Z,6.01
2022-11-22T21:18:40.691Z,5.94
2022-11-22T21:23:43.707Z,5.28
2022-11-22T21:28:45.725Z,5.62
2022-11-22T21:33:48.081Z,5.66
2022-11-22T21:38:50.266Z,5.64
2022-11-22T21:43:54.978Z,6.00
2022-11-22T21:48:56.977Z,5.85
2022-11-22T21:54:00.228Z,5.68
2022-11-22T21:59:02.259Z,5.63
2022-11-22T22:04:04.792Z,5.82
2022-11-22T22:09:06.724Z,5.91
2022-11-22T22:14:08.768Z,5.71
2022-11-22T22:19:11.491Z,5.97
2022-11-22T22:24:13.782Z,6.04
2022-11-22T22:29:15.648Z,5.94
2022-11-22T22:34:18.274Z,5.86
2022-11-22T22:39:20.224Z,6.25
2022-11-22T22:44:22.050Z,6.23
2022-11-22T22:49:23.929Z,6.08
2022-11-22T22:54:25.955Z,5.81
2022-11-22T22:59:27.948Z,5.66
2022-11-22T23:04:30.074Z,6.25
2022-11-22T23:09:32.433Z,6.15
2022-11-22T23:14:34.575Z,6.15
2022-11-22T23:19:37.017Z,6.22
2022-11-22T23:24:39.163Z,6.01
2022-11-22T23:29:41.034Z,6.04
2022-11-22T23:34:43.030Z,6.01
2022-11-22T23:39:44.935Z,5.82
2022-11-22T23:44:47.042Z,5.90
2022-11-22T23:49:48.900Z,6.10
2022-11-22T23:54:50.763Z,5.94
2022-11-22T23:59:52.664Z,6.08
